createdAt,value
2023-04-15T00:02:26.940Z,5.30
2023-04-15T00:04:55.004Z,4.90
2023-04-15T00:07:22.520Z,4.80
2023-04-15T00:09:49.996Z,4.15
2023-04-15T00:12:17.830Z,4.22
2023-04-15T00:14:45.370Z,3.77
2023-04-15T00:17:13.281Z,2.92
2023-04-15T00:19:41.082Z,3.30
2023-04-15T00:22:09.302Z,3.37
2023-04-15T00:24:36.962Z,4.50
2023-04-15T00:27:04.761Z,3.97
2023-04-15T00:29:32.455Z,4.10
2023-04-15T00:32:00.305Z,3.35
2023-04-15T00:34:28.964Z,2.90
2023-04-15T00:36:56.519Z,2.87
2023-04-15T00:39:24.184Z,2.60
2023-04-15T00:41:51.962Z,2.85
2023-04-15T00:44:19.425Z,2.65
2023-04-15T00:46:48.704Z,2.85
2023-04-15T00:49:18.390Z,2.28
2023-04-15T00:51:46.041Z,2.17
2023-04-15T00:54:13.766Z,1.92
2023-04-15T00:56:42.212Z,2.00
2023-04-15T00:59:10.068Z,1.80
2023-04-15T01:01:38.524Z,1.55
2023-04-15T01:04:07.143Z,1.60
2023-04-15T01:06:34.819Z,1.20
2023-04-15T01:09:03.442Z,1.75
2023-04-15T01:11:34.364Z,1.62
2023-04-15T01:14:02.888Z,1.67
2023-04-15T01:16:31.598Z,1.40
2023-04-15T01:18:59.516Z,1.40
2023-04-15T01:21:27.156Z,1.87
2023-04-15T01:23:56.913Z,1.37
2023-04-15T01:26:24.663Z,1.90
2023-04-15T01:28:52.292Z,1.33
2023-04-15T01:31:22.230Z,1.60
2023-04-15T01:33:49.762Z,1.67
2023-04-15T01:36:17.274Z,1.92
2023-04-15T01:38:45.768Z,1.80
2023-04-15T01:41:15.165Z,1.53
2023-04-15T01:43:42.965Z,1.52
2023-04-15T01:46:11.157Z,1.50
2023-04-15T01:48:38.742Z,1.65
2023-04-15T01:51:06.261Z,1.73
2023-04-15T01:53:34.334Z,1.53
2023-04-15T01:56:02.949Z,1.70
2023-04-15T01:58:30.720Z,1.40
2023-04-15T02:00:58.598Z,1.70
2023-04-15T02:03:27.779Z,1.33
2023-04-15T02:05:55.417Z,1.50
2023-04-15T02:08:23.033Z,1.52
2023-04-15T02:10:51.185Z,1.40
2023-04-15T02:13:19.039Z,1.70
2023-04-15T02:15:48.602Z,2.05
2023-04-15T02:18:16.934Z,1.77
2023-04-15T02:20:45.506Z,1.77
2023-04-15T02:23:16.948Z,1.70
2023-04-15T02:25:53.745Z,1.90
2023-04-15T02:28:22.292Z,1.80
2023-04-15T02:30:53.585Z,2.20
2023-04-15T02:33:21.765Z,2.05
2023-04-15T02:35:49.590Z,1.75
2023-04-15T02:38:18.043Z,2.37
2023-04-15T02:40:46.191Z,2.30
2023-04-15T02:43:14.270Z,2.13
2023-04-15T02:45:43.535Z,2.35
2023-04-15T02:48:11.540Z,2.75
2023-04-15T02:50:40.764Z,2.35
2023-04-15T02:53:09.094Z,2.70
2023-04-15T02:55:36.962Z,2.80
2023-04-15T02:58:04.877Z,3.00
2023-04-15T03:00:32.498Z,3.45
2023-04-15T03:03:02.858Z,3.30
2023-04-15T03:05:30.941Z,3.40
2023-04-15T03:07:58.641Z,3.60
2023-04-15T03:10:26.109Z,3.50
2023-04-15T03:12:53.978Z,3.53
2023-04-15T03:15:22.352Z,3.65
2023-04-15T03:17:50.127Z,3.80
2023-04-15T03:20:18.099Z,3.90
2023-04-15T03:22:45.967Z,3.55
2023-04-15T03:25:13.493Z,3.65
2023-04-15T03:27:42.001Z,3.95
2023-04-15T03:30:10.239Z,3.90
2023-04-15T03:32:38.505Z,4.17
2023-04-15T03:35:07.498Z,4.18
2023-04-15T03:37:34.966Z,4.70
2023-04-15T03:40:02.591Z,4.40
2023-04-15T03:42:30.605Z,4.53
2023-04-15T03:44:58.057Z,4.50
2023-04-15T03:47:25.715Z,5.00
2023-04-15T03:49:53.713Z,4.97
2023-04-15T03:52:21.429Z,5.18
2023-04-15T03:54:48.905Z,4.85
2023-04-15T03:57:16.753Z,5.87
2023-04-15T03:59:44.356Z,5.82
2023-04-15T04:02:11.952Z,6.28
2023-04-15T04:04:39.872Z,6.32
2023-04-15T04:07:07.363Z,6.90
2023-04-15T04:09:34.997Z,6.63
2023-04-15T04:12:04.272Z,6.70
2023-04-15T04:14:37.636Z,7.60
2023-04-15T04:17:05.609Z,7.82
2023-04-15T04:19:33.366Z,8.88
2023-04-15T04:22:01.491Z,8.70
2023-04-15T04:24:29.308Z,8.45
2023-04-15T04:26:57.347Z,8.35
2023-04-15T04:29:25.000Z,7.87
2023-04-15T04:31:52.907Z,8.25
2023-04-15T04:34:20.644Z,8.60
2023-04-15T04:36:48.072Z,8.60
2023-04-15T04:39:16.162Z,9.00
2023-04-15T04:41:44.754Z,9.23
2023-04-15T04:44:12.795Z,8.02
2023-04-15T04:46:40.576Z,8.10
2023-04-15T04:49:08.546Z,7.85
2023-04-15T04:51:36.156Z,8.43
2023-04-15T04:54:04.668Z,8.23
2023-04-15T04:56:32.217Z,8.27
2023-04-15T04:58:59.996Z,8.20
2023-04-15T05:01:28.512Z,7.60
2023-04-15T05:03:56.521Z,7.50
2023-04-15T05:06:24.150Z,6.68
2023-04-15T05:08:52.148Z,6.90
2023-04-15T05:11:19.712Z,7.00
2023-04-15T05:13:47.246Z,6.60
2023-04-15T05:16:15.069Z,6.47
2023-04-15T05:18:42.807Z,6.15
2023-04-15T05:21:10.901Z,6.03
2023-04-15T05:23:38.779Z,5.13
2023-04-15T05:26:06.254Z,5.43
2023-04-15T05:28:33.830Z,5.20
2023-04-15T05:31:01.876Z,5.10
2023-04-15T05:33:29.510Z,4.85
2023-04-15T05:35:56.956Z,4.97
2023-04-15T05:38:24.781Z,4.30
2023-04-15T05:40:52.289Z,4.37
2023-04-15T05:43:19.793Z,4.35
2023-04-15T05:45:47.660Z,4.12
2023-04-15T05:48:15.128Z,5.23
2023-04-15T05:50:42.666Z,4.45
2023-04-15T05:53:10.705Z,4.87
2023-04-15T05:55:38.262Z,4.57
2023-04-15T05:58:06.420Z,4.43
2023-04-15T06:00:34.650Z,4.03
2023-04-15T06:03:02.606Z,4.25
2023-04-15T06:05:30.049Z,3.80
2023-04-15T06:07:57.724Z,3.72
2023-04-15T06:10:25.706Z,3.80
2023-04-15T06:12:53.521Z,4.10
2023-04-15T06:15:21.053Z,4.03
2023-04-15T06:17:48.873Z,4.22
2023-04-15T06:20:16.613Z,3.60
2023-04-15T06:22:44.082Z,3.72
2023-04-15T06:25:11.997Z,3.73
2023-04-15T06:27:39.781Z,3.83
2023-04-15T06:30:07.969Z,4.05
2023-04-15T06:32:35.934Z,4.18
2023-04-15T06:35:04.031Z,4.50
2023-04-15T06:37:32.677Z,4.33
2023-04-15T06:40:00.593Z,5.47
2023-04-15T06:42:28.276Z,5.60
2023-04-15T06:44:55.790Z,5.55
2023-04-15T06:47:23.577Z,5.85
2023-04-15T06:49:51.176Z,6.40
2023-04-15T06:52:18.685Z,5.95
2023-04-15T06:54:46.982Z,6.80
2023-04-15T06:57:14.567Z,6.40
2023-04-15T06:59:43.068Z,6.47
2023-04-15T07:02:12.697Z,6.60
2023-04-15T07:04:40.917Z,6.72
2023-04-15T07:07:08.466Z,7.45
2023-04-15T07:09:36.346Z,7.05
2023-04-15T07:12:04.135Z,6.47
2023-04-15T07:14:31.869Z,6.73
2023-04-15T07:16:59.731Z,6.32
2023-04-15T07:19:27.742Z,6.55
2023-04-15T07:21:55.339Z,4.47
2023-04-15T07:24:26.714Z,3.60
2023-04-15T07:26:59.425Z,3.40
2023-04-15T07:29:28.691Z,4.05
2023-04-15T07:31:57.248Z,3.90
2023-04-15T07:34:25.164Z,3.20
2023-04-15T07:36:52.974Z,3.90
2023-04-15T07:39:20.521Z,2.73
2023-04-15T07:41:49.321Z,2.80
2023-04-15T07:44:17.247Z,3.60
2023-04-15T07:46:44.701Z,3.00
2023-04-15T07:49:13.439Z,3.28
2023-04-15T07:51:41.334Z,3.73
2023-04-15T07:54:09.242Z,3.58
2023-04-15T07:56:36.733Z,5.28
2023-04-15T07:59:06.179Z,2.80
2023-04-15T08:01:33.908Z,4.57
2023-04-15T08:04:02.323Z,3.30
2023-04-15T08:06:30.006Z,5.75
2023-04-15T08:08:57.775Z,4.55
2023-04-15T08:11:26.311Z,3.75
2023-04-15T08:13:53.926Z,2.60
2023-04-15T08:16:27.533Z,2.57
2023-04-15T08:18:56.499Z,2.20
2023-04-15T08:21:25.006Z,1.75
2023-04-15T08:23:53.446Z,1.42
2023-04-15T08:26:21.767Z,2.40
2023-04-15T08:28:50.237Z,2.33
2023-04-15T08:31:18.880Z,1.27
2023-04-15T08:33:46.813Z,1.60
2023-04-15T08:36:14.857Z,1.65
2023-04-15T08:38:42.304Z,1.30
2023-04-15T08:41:22.637Z,1.57
2023-04-15T08:43:57.133Z,1.58
2023-04-15T08:46:25.057Z,1.50
2023-04-15T08:48:56.738Z,1.95
2023-04-15T08:51:25.282Z,2.12
2023-04-15T08:53:53.477Z,1.60
2023-04-15T08:56:24.635Z,1.70
2023-04-15T08:58:52.601Z,1.60
2023-04-15T09:01:21.157Z,1.40
2023-04-15T09:03:49.543Z,1.10
2023-04-15T09:06:17.916Z,1.40
2023-04-15T09:08:45.779Z,1.17
2023-04-15T09:11:13.725Z,1.50
2023-04-15T09:13:41.214Z,1.20
2023-04-15T09:16:09.504Z,1.00
2023-04-15T09:18:39.117Z,0.97
2023-04-15T09:21:18.168Z,0.90
2023-04-15T09:24:00.034Z,1.30
2023-04-15T09:26:31.611Z,0.80
2023-04-15T09:29:13.888Z,1.60
2023-04-15T09:31:42.831Z,1.90
2023-04-15T09:34:10.879Z,1.77
2023-04-15T09:36:49.108Z,1.60
2023-04-15T09:39:18.435Z,1.67
2023-04-15T09:41:46.045Z,1.67
2023-04-15T09:44:26.875Z,1.73
2023-04-15T09:46:54.697Z,1.37
2023-04-15T09:49:22.275Z,1.50
2023-04-15T09:52:03.986Z,2.53
2023-04-15T09:54:38.791Z,1.70
2023-04-15T09:57:13.194Z,1.40
2023-04-15T09:59:41.037Z,1.48
2023-04-15T10:02:09.279Z,1.25
2023-04-15T10:04:40.724Z,1.02
2023-04-15T10:07:09.774Z,1.33
2023-04-15T10:09:39.478Z,1.40
2023-04-15T10:12:07.307Z,1.62
2023-04-15T10:14:38.612Z,1.10
2023-04-15T10:17:08.289Z,1.20
2023-04-15T10:19:37.289Z,2.40
2023-04-15T10:22:05.084Z,0.60
2023-04-15T10:24:33.421Z,2.22
2023-04-15T10:27:01.732Z,2.08
2023-04-15T10:29:29.976Z,1.00
2023-04-15T10:31:59.414Z,1.05
2023-04-15T10:34:27.548Z,0.97
2023-04-15T10:37:02.588Z,0.98
2023-04-15T10:39:34.086Z,0.62
2023-04-15T10:42:08.318Z,0.65
2023-04-15T10:44:49.140Z,0.40
2023-04-15T10:47:21.470Z,0.37
2023-04-15T10:49:58.127Z,0.37
2023-04-15T10:52:30.445Z,0.40
2023-04-15T10:55:15.984Z,0.50
2023-04-15T10:57:44.883Z,0.80
2023-04-15T11:00:16.895Z,0.77
2023-04-15T11:02:52.516Z,0.70
2023-04-15T11:05:21.664Z,0.60
2023-04-15T11:07:49.354Z,0.50
2023-04-15T11:10:26.089Z,0.50
2023-04-15T11:12:57.491Z,0.50
2023-04-15T11:15:37.831Z,0.70
2023-04-15T11:18:23.056Z,1.02
2023-04-15T11:20:59.281Z,0.98
2023-04-15T11:23:37.857Z,1.52
2023-04-15T11:26:10.132Z,1.43
2023-04-15T11:28:40.790Z,0.90
2023-04-15T11:31:13.441Z,0.70
2023-04-15T11:33:59.526Z,0.50
2023-04-15T11:36:28.711Z,0.65
2023-04-15T11:38:58.361Z,0.60
2023-04-15T11:41:26.465Z,0.70
2023-04-15T11:43:54.129Z,1.00
2023-04-15T11:46:31.981Z,1.10
2023-04-15T11:49:00.255Z,0.75
2023-04-15T11:51:32.789Z,1.00
2023-04-15T11:54:00.780Z,1.02
2023-04-15T11:56:28.625Z,0.70
2023-04-15T11:58:59.961Z,1.00
2023-04-15T12:01:36.398Z,0.90
2023-04-15T12:04:12.021Z,0.73
2023-04-15T12:06:39.750Z,0.80
2023-04-15T12:09:08.716Z,0.60
2023-04-15T12:11:50.331Z,0.40
2023-04-15T12:14:32.045Z,0.60
2023-04-15T12:17:05.984Z,1.10
2023-04-15T12:19:38.594Z,1.17
2023-04-15T12:22:09.550Z,1.40
2023-04-15T12:24:38.251Z,1.00
2023-04-15T12:27:11.282Z,1.20
2023-04-15T12:29:40.273Z,1.03
2023-04-15T12:32:15.581Z,1.00
2023-04-15T12:34:49.340Z,1.30
2023-04-15T12:37:17.014Z,1.80
2023-04-15T12:39:46.791Z,1.45
2023-04-15T12:42:15.332Z,1.40
2023-04-15T12:44:43.118Z,1.70
2023-04-15T12:47:11.716Z,1.23
2023-04-15T12:49:39.773Z,1.20
2023-04-15T12:52:07.744Z,1.45
2023-04-15T12:54:36.433Z,1.03
2023-04-15T12:57:06.891Z,1.25
2023-04-15T12:59:36.155Z,1.20
2023-04-15T13:02:04.525Z,0.90
2023-04-15T13:04:32.397Z,1.15
2023-04-15T13:07:01.555Z,1.27
2023-04-15T13:09:29.117Z,1.60
2023-04-15T13:11:57.671Z,2.00
2023-04-15T13:14:25.694Z,1.37
2023-04-15T13:16:53.951Z,1.65
2023-04-15T13:19:24.312Z,1.40
2023-04-15T13:21:52.095Z,0.90
2023-04-15T13:24:19.626Z,1.40
2023-04-15T13:26:49.672Z,1.83
2023-04-15T13:29:18.186Z,1.40
2023-04-15T13:31:45.886Z,0.90
2023-04-15T13:34:13.720Z,1.60
2023-04-15T13:36:42.230Z,1.62
2023-04-15T13:39:09.727Z,1.60
2023-04-15T13:41:37.538Z,2.22
2023-04-15T13:44:06.470Z,1.93
2023-04-15T13:46:34.097Z,1.92
2023-04-15T13:49:02.077Z,1.58
2023-04-15T13:51:29.975Z,2.22
2023-04-15T13:53:58.198Z,1.50
2023-04-15T13:56:26.013Z,1.50
2023-04-15T13:58:58.789Z,1.60
2023-04-15T14:01:26.419Z,2.00
2023-04-15T14:03:54.754Z,1.12
2023-04-15T14:06:22.356Z,1.30
2023-04-15T14:08:49.967Z,1.13
2023-04-15T14:11:17.929Z,1.30
2023-04-15T14:13:45.501Z,1.10
2023-04-15T14:16:13.003Z,1.08
2023-04-15T14:18:40.928Z,0.60
2023-04-15T14:21:08.642Z,0.70
2023-04-15T14:23:36.306Z,0.88
2023-04-15T14:26:04.382Z,0.80
2023-04-15T14:28:32.237Z,0.80
2023-04-15T14:30:59.897Z,0.70
2023-04-15T14:33:27.626Z,0.60
2023-04-15T14:35:55.240Z,0.98
2023-04-15T14:38:23.106Z,0.62
2023-04-15T14:40:51.038Z,0.50
2023-04-15T14:43:19.168Z,0.65
2023-04-15T14:45:46.700Z,0.40
2023-04-15T14:48:14.860Z,0.60
2023-04-15T14:50:42.609Z,0.65
2023-04-15T14:53:10.655Z,0.70
2023-04-15T14:55:38.812Z,1.02
2023-04-15T14:58:08.272Z,7.47
2023-04-15T15:00:39.276Z,2.08
2023-04-15T15:03:12.796Z,2.40
2023-04-15T15:05:41.827Z,3.20
2023-04-15T15:08:10.153Z,2.45
2023-04-15T15:10:48.592Z,1.60
2023-04-15T15:13:18.858Z,0.68
2023-04-15T15:15:46.786Z,0.50
2023-04-15T15:18:16.845Z,0.30
2023-04-15T15:20:44.889Z,0.47
2023-04-15T15:23:13.164Z,0.20
2023-04-15T15:25:40.827Z,0.40
2023-04-15T15:28:08.891Z,0.30
2023-04-15T15:30:36.405Z,0.30
2023-04-15T15:33:03.967Z,0.30
2023-04-15T15:35:34.982Z,0.30
2023-04-15T15:38:02.763Z,0.30
2023-04-15T15:40:30.424Z,0.30
2023-04-15T15:42:58.349Z,0.32
2023-04-15T15:45:25.943Z,0.40
2023-04-15T15:47:53.977Z,0.30
2023-04-15T15:50:22.012Z,0.30
2023-04-15T15:52:49.640Z,0.40
2023-04-15T15:55:17.492Z,0.50
2023-04-15T15:57:45.602Z,0.40
2023-04-15T16:00:14.270Z,0.30
2023-04-15T16:05:13.587Z,0.30
2023-04-15T16:07:41.292Z,0.30
2023-04-15T16:10:09.534Z,0.40
2023-04-15T16:12:37.316Z,0.30
2023-04-15T16:15:05.234Z,0.40
2023-04-15T16:17:33.058Z,0.30
2023-04-15T16:20:01.358Z,0.37
2023-04-15T16:22:29.288Z,0.47
2023-04-15T16:24:57.086Z,0.30
2023-04-15T16:27:24.682Z,0.37
2023-04-15T16:29:52.222Z,0.50
2023-04-15T16:32:20.309Z,0.30
2023-04-15T16:34:47.909Z,0.40
2023-04-15T16:37:15.523Z,0.50
2023-04-15T16:39:43.405Z,0.50
2023-04-15T16:42:10.993Z,0.50
2023-04-15T16:44:38.797Z,0.60
2023-04-15T16:47:06.858Z,0.85
2023-04-15T16:49:35.590Z,1.20
2023-04-15T16:52:03.706Z,1.20
2023-04-15T16:54:33.506Z,1.35
2023-04-15T16:57:02.121Z,1.35
2023-04-15T16:59:29.650Z,1.52
2023-04-15T17:01:57.836Z,1.80
2023-04-15T17:04:25.904Z,1.70
2023-04-15T17:06:53.517Z,1.98
2023-04-15T17:09:21.398Z,2.10
2023-04-15T17:11:49.142Z,1.80
2023-04-15T17:14:16.690Z,2.27
2023-04-15T17:16:44.435Z,1.80
2023-04-15T17:19:11.863Z,2.20
2023-04-15T17:21:39.386Z,2.20
2023-04-15T17:24:07.289Z,2.17
2023-04-15T17:26:34.811Z,2.70
2023-04-15T17:29:02.566Z,3.47
2023-04-15T17:31:31.179Z,2.90
2023-04-15T17:34:03.608Z,3.30
2023-04-15T17:36:38.048Z,3.10
2023-04-15T17:39:05.792Z,3.07
2023-04-15T17:41:33.583Z,2.60
2023-04-15T17:44:01.613Z,2.85
2023-04-15T17:46:29.631Z,2.95
2023-04-15T17:48:57.466Z,2.87
2023-04-15T17:51:26.496Z,2.70
2023-04-15T17:54:07.640Z,2.45
2023-04-15T17:56:35.659Z,3.00
2023-04-15T17:59:03.620Z,2.28
2023-04-15T18:01:31.396Z,2.37
2023-04-15T18:03:59.864Z,2.40
2023-04-15T18:06:27.773Z,2.47
2023-04-15T18:08:56.197Z,2.22
2023-04-15T18:11:24.107Z,2.45
2023-04-15T18:13:51.703Z,2.40
2023-04-15T18:19:19.795Z,2.33
2023-04-15T18:21:48.308Z,2.20
2023-04-15T18:24:16.556Z,2.30
2023-04-15T18:26:45.686Z,1.90
2023-04-15T18:29:16.206Z,2.20
2023-04-15T18:31:44.597Z,2.00
2023-04-15T18:34:13.138Z,2.00
2023-04-15T18:36:41.561Z,2.10
2023-04-15T18:39:09.762Z,1.83
2023-04-15T18:41:37.666Z,1.77
2023-04-15T18:44:06.006Z,1.40
2023-04-15T18:46:37.254Z,1.62
2023-04-15T18:49:06.434Z,1.62
2023-04-15T18:51:34.587Z,1.60
2023-04-15T18:54:02.424Z,1.50
2023-04-15T18:56:31.247Z,1.67
2023-04-15T18:59:21.360Z,1.80
2023-04-15T19:01:48.917Z,1.40
2023-04-15T19:04:16.804Z,1.80
2023-04-15T19:06:44.826Z,1.43
2023-04-15T19:09:13.421Z,1.48
2023-04-15T19:11:41.363Z,1.05
2023-04-15T19:14:09.879Z,1.30
2023-04-15T19:16:38.404Z,1.35
2023-04-15T19:19:06.928Z,0.90
2023-04-15T19:21:35.726Z,1.10
2023-04-15T19:24:04.026Z,0.95
2023-04-15T19:26:31.871Z,1.00
2023-04-15T19:29:00.022Z,1.10
2023-04-15T19:31:28.332Z,1.07
2023-04-15T19:33:56.902Z,0.90
2023-04-15T19:36:25.488Z,1.00
2023-04-15T19:38:53.819Z,1.15
2023-04-15T19:41:22.474Z,0.88
2023-04-15T19:43:51.982Z,1.23
2023-04-15T19:46:20.557Z,0.80
2023-04-15T19:48:48.856Z,0.90
2023-04-15T19:51:16.926Z,0.90
2023-04-15T19:53:45.147Z,0.88
2023-04-15T19:56:13.880Z,0.80
2023-04-15T19:58:41.953Z,0.85
2023-04-15T20:01:10.392Z,0.90
2023-04-15T20:03:38.907Z,0.85
2023-04-15T20:06:07.093Z,0.98
2023-04-15T20:08:35.042Z,0.83
2023-04-15T20:11:03.382Z,1.15
2023-04-15T20:13:31.724Z,1.10
2023-04-15T20:15:59.659Z,1.12
2023-04-15T20:18:28.319Z,1.20
2023-04-15T20:20:56.425Z,1.10
2023-04-15T20:23:24.299Z,1.30
2023-04-15T20:25:52.693Z,1.48
2023-04-15T20:28:20.747Z,1.00
2023-04-15T20:30:48.810Z,0.90
2023-04-15T20:33:17.448Z,1.30
2023-04-15T20:35:45.410Z,1.40
2023-04-15T20:38:15.436Z,1.50
2023-04-15T20:40:43.825Z,1.17
2023-04-15T20:43:11.951Z,1.48
2023-04-15T20:45:39.836Z,1.13
2023-04-15T20:48:08.740Z,1.73
2023-04-15T20:50:36.907Z,1.67
2023-04-15T20:53:05.273Z,0.93
2023-04-15T20:55:33.474Z,1.00
2023-04-15T20:58:01.251Z,1.33
2023-04-15T21:00:29.496Z,1.30
2023-04-15T21:02:57.946Z,1.27
2023-04-15T21:05:25.937Z,1.33
2023-04-15T21:07:56.624Z,1.50
2023-04-15T21:10:25.352Z,1.23
2023-04-15T21:12:53.455Z,1.33
2023-04-15T21:15:21.323Z,1.42
2023-04-15T21:17:50.165Z,1.23
2023-04-15T21:20:18.198Z,1.58
2023-04-15T21:22:46.158Z,1.20
2023-04-15T21:25:14.456Z,1.30
2023-04-15T21:27:42.393Z,1.20
2023-04-15T21:30:10.850Z,1.35
2023-04-15T21:32:39.193Z,1.42
2023-04-15T21:35:07.582Z,1.40
2023-04-15T21:37:35.474Z,1.20
2023-04-15T21:40:04.771Z,1.25
2023-04-15T21:42:32.797Z,1.20
2023-04-15T21:45:00.744Z,1.10
2023-04-15T21:48:00.773Z,1.40
2023-04-15T21:50:23.978Z,1.30
2023-04-15T21:52:51.792Z,1.40
2023-04-15T21:55:19.587Z,1.23
2023-04-15T21:57:47.135Z,1.20
2023-04-15T22:00:15.605Z,1.33
2023-04-15T22:02:43.491Z,1.20
2023-04-15T22:05:11.581Z,1.62
2023-04-15T22:07:39.153Z,1.77
2023-04-15T22:10:07.594Z,1.70
2023-04-15T22:12:35.382Z,1.30
2023-04-15T22:15:03.253Z,1.40
2023-04-15T22:17:31.093Z,1.60
2023-04-15T22:19:58.663Z,1.58
2023-04-15T22:22:27.062Z,1.80
2023-04-15T22:25:12.399Z,1.73
2023-04-15T22:27:40.041Z,1.60
2023-04-15T22:30:11.237Z,1.67
2023-04-15T22:32:39.092Z,1.70
2023-04-15T22:35:07.210Z,1.48
2023-04-15T22:37:34.796Z,1.40
2023-04-15T22:40:03.085Z,1.52
2023-04-15T22:42:30.885Z,1.85
2023-04-15T22:44:58.398Z,1.70
2023-04-15T22:47:26.348Z,1.73
2023-04-15T22:49:53.972Z,1.50
2023-04-15T22:52:30.015Z,1.80
2023-04-15T22:54:59.058Z,1.65
2023-04-15T22:57:27.949Z,1.83
2023-04-15T22:59:55.732Z,1.67
2023-04-15T23:02:23.813Z,1.43
2023-04-15T23:04:51.939Z,1.73
2023-04-15T23:07:19.501Z,1.50
2023-04-15T23:09:47.591Z,1.30
2023-04-15T23:12:15.198Z,1.30
2023-04-15T23:14:42.699Z,1.00
2023-04-15T23:17:10.707Z,0.93
2023-04-15T23:19:38.220Z,1.20
2023-04-15T23:22:07.080Z,1.05
2023-04-15T23:24:35.020Z,1.10
2023-04-15T23:27:02.589Z,1.07
2023-04-15T23:29:30.354Z,1.10
2023-04-15T23:31:58.311Z,1.00
2023-04-15T23:34:26.284Z,0.90
2023-04-15T23:36:53.823Z,0.95
2023-04-15T23:39:21.666Z,0.90
2023-04-15T23:41:49.138Z,0.95
2023-04-15T23:44:16.674Z,0.90
2023-04-15T23:46:44.456Z,1.00
2023-04-15T23:49:13.421Z,0.90
2023-04-15T23:51:41.338Z,0.90
2023-04-15T23:54:09.254Z,1.20
2023-04-15T23:56:36.688Z,1.30
2023-04-15T23:59:04.367Z,1.20
